Auriga Leader — 9VHF4 — position and weather

sailwx.info

Track history (hours):
 
Tides and Currents Weather Stations Pressure Air Temp Water Temp Dewpoint Dewpoint Depression Visibility Wind Speed Wind Dir Waves Ship Positions

Auriga Leader

Last reported at 2017-Dec-16 01:29 UTC. Time now 2017-Dec-16 01:30 UTC.
Position N 35°03' E 136°53'.

Length 199 m; draft 7.8 m.

Type: Cargo ship. MMSI: 564268000.

Date/timePositionNaut miles runAvg speedWind from/ knotsBaromVisibWave heightAir tempDewpointWater temp
2017-Dec-16 01:29N 35°03' E 136°53'0 0.0
2017-Dec-16 00:59N 35°03' E 136°53'0 0.0
2017-Dec-16 00:29N 35°03' E 136°53'0 0.0
2017-Dec-15 23:59N 35°03' E 136°53'0 0.0
2017-Dec-15 23:29N 35°03' E 136°53'0 0.0
2017-Dec-15 22:59N 35°03' E 136°53'0 0.0
2017-Dec-15 22:29N 35°03' E 136°53'0 0.0
2017-Dec-15 21:59N 35°03' E 136°53'0 0.0
2017-Dec-15 21:29N 35°03' E 136°53'0 0.0
2017-Dec-15 20:59N 35°03' E 136°53'0 0.0
2017-Dec-15 20:26N 35°03' E 136°53'0 0.0
2017-Dec-15 19:59N 35°03' E 136°53'0 0.0
2017-Dec-15 19:26N 35°03' E 136°53'0 0.0
2017-Dec-15 18:59N 35°03' E 136°53'0 0.0
2017-Dec-15 18:29N 35°03' E 136°53'0 0.0
2017-Dec-15 17:59N 35°03' E 136°53'0 0.0
2017-Dec-15 17:26N 35°03' E 136°53'0 0.0
2017-Dec-15 16:59N 35°03' E 136°53'0 0.0
2017-Dec-15 16:29N 35°03' E 136°53'0 0.0
2017-Dec-15 15:56N 35°03' E 136°53'0 0.0
2017-Dec-15 15:23N 35°03' E 136°53'0 0.0
2017-Dec-15 14:59N 35°03' E 136°53'0 0.0
2017-Dec-15 14:29N 35°03' E 136°53'0 0.0
2017-Dec-15 13:59N 35°03' E 136°53'0 0.0
2017-Dec-15 13:29N 35°03' E 136°53'0 0.0
2017-Dec-15 12:59N 35°03' E 136°53'0 0.0
2017-Dec-15 12:29N 35°03' E 136°53'0 0.0
2017-Dec-15 11:59N 35°03' E 136°53'0 0.0
2017-Dec-15 11:29N 35°03' E 136°53'0 0.0
2017-Dec-15 10:59N 35°03' E 136°53'0 0.0
2017-Dec-15 10:29N 35°03' E 136°53'0 0.0
2017-Dec-15 09:59N 35°03' E 136°53'0 0.0
2017-Dec-15 09:29N 35°03' E 136°53'0 0.0
2017-Dec-15 08:59N 35°03' E 136°53'0 0.0
2017-Dec-15 08:29N 35°03' E 136°53'0 0.0
2017-Dec-15 07:59N 35°03' E 136°53'0 0.0
2017-Dec-15 07:29N 35°03' E 136°53'0 0.0
2017-Dec-15 06:59N 35°03' E 136°53'0 0.0
2017-Dec-15 06:29N 35°03' E 136°53'0 0.0
2017-Dec-15 05:59N 35°03' E 136°53'0 0.0
2017-Dec-15 05:29N 35°03' E 136°53'0 0.0
2017-Dec-15 04:59N 35°03' E 136°53'0 0.0
2017-Dec-15 04:29N 35°03' E 136°53'0 0.0
2017-Dec-15 03:59N 35°03' E 136°53'0 0.0
2017-Dec-15 02:26N 35°03' E 136°53'0 0.0
2017-Dec-15 00:59N 35°03' E 136°53'0 0.0
2017-Dec-15 00:29N 35°03' E 136°53'40 6.4
2017-Dec-14 18:15N 34°27' E 137°13'2 8.6
2017-Dec-14 17:58N 34°26' E 137°16'610.4
2017-Dec-14 17:22N 34°23' E 137°22'14 5.8
2017-Dec-14 15:00N 34°19' E 137°38'0 0.2
2017-Dec-14 14:20N 34°19' E 137°38'0 0.6
2017-Dec-14 14:00N 34°19' E 137°39'1 1.1
2017-Dec-14 13:06N 34°19' E 137°40'0 1.8
2017-Dec-14 12:59N 34°19' E 137°40'  
Track history (hours):
 
Tides and Currents Weather Stations Pressure Air Temp Water Temp Dewpoint Dewpoint Depression Visibility Wind Speed Wind Dir Waves Ship Positions

Auriga Leader

Last reported at 2017-Dec-16 01:29 UTC. Time now 2017-Dec-16 01:30 UTC.
Position N 35°03' E 136°53'.

Length 199 m; draft 7.8 m.

Type: Cargo ship. MMSI: 564268000.

Date/timePositionNaut miles runAvg speedWind from/ knotsBaromVisibWave heightAir tempDewpointWater temp
2017-Dec-16 01:29N 35°03' E 136°53'0 0.0
2017-Dec-16 00:59N 35°03' E 136°53'0 0.0
2017-Dec-16 00:29N 35°03' E 136°53'0 0.0
2017-Dec-15 23:59N 35°03' E 136°53'0 0.0
2017-Dec-15 23:29N 35°03' E 136°53'0 0.0
2017-Dec-15 22:59N 35°03' E 136°53'0 0.0
2017-Dec-15 22:29N 35°03' E 136°53'0 0.0
2017-Dec-15 21:59N 35°03' E 136°53'0 0.0
2017-Dec-15 21:29N 35°03' E 136°53'0 0.0
2017-Dec-15 20:59N 35°03' E 136°53'0 0.0
2017-Dec-15 20:26N 35°03' E 136°53'0 0.0
2017-Dec-15 19:59N 35°03' E 136°53'0 0.0
2017-Dec-15 19:26N 35°03' E 136°53'0 0.0
2017-Dec-15 18:59N 35°03' E 136°53'0 0.0
2017-Dec-15 18:29N 35°03' E 136°53'0 0.0
2017-Dec-15 17:59N 35°03' E 136°53'0 0.0
2017-Dec-15 17:26N 35°03' E 136°53'0 0.0
2017-Dec-15 16:59N 35°03' E 136°53'0 0.0
2017-Dec-15 16:29N 35°03' E 136°53'0 0.0
2017-Dec-15 15:56N 35°03' E 136°53'0 0.0
2017-Dec-15 15:23N 35°03' E 136°53'0 0.0
2017-Dec-15 14:59N 35°03' E 136°53'0 0.0
2017-Dec-15 14:29N 35°03' E 136°53'0 0.0
2017-Dec-15 13:59N 35°03' E 136°53'0 0.0
2017-Dec-15 13:29N 35°03' E 136°53'0 0.0
2017-Dec-15 12:59N 35°03' E 136°53'0 0.0
2017-Dec-15 12:29N 35°03' E 136°53'0 0.0
2017-Dec-15 11:59N 35°03' E 136°53'0 0.0
2017-Dec-15 11:29N 35°03' E 136°53'0 0.0
2017-Dec-15 10:59N 35°03' E 136°53'0 0.0
2017-Dec-15 10:29N 35°03' E 136°53'0 0.0
2017-Dec-15 09:59N 35°03' E 136°53'0 0.0
2017-Dec-15 09:29N 35°03' E 136°53'0 0.0
2017-Dec-15 08:59N 35°03' E 136°53'0 0.0
2017-Dec-15 08:29N 35°03' E 136°53'0 0.0
2017-Dec-15 07:59N 35°03' E 136°53'0 0.0
2017-Dec-15 07:29N 35°03' E 136°53'0 0.0
2017-Dec-15 06:59N 35°03' E 136°53'0 0.0
2017-Dec-15 06:29N 35°03' E 136°53'0 0.0
2017-Dec-15 05:59N 35°03' E 136°53'0 0.0
2017-Dec-15 05:29N 35°03' E 136°53'0 0.0
2017-Dec-15 04:59N 35°03' E 136°53'0 0.0
2017-Dec-15 04:29N 35°03' E 136°53'0 0.0
2017-Dec-15 03:59N 35°03' E 136°53'0 0.0
2017-Dec-15 02:26N 35°03' E 136°53'0 0.0
2017-Dec-15 00:59N 35°03' E 136°53'0 0.0
2017-Dec-15 00:29N 35°03' E 136°53'40 6.4
2017-Dec-14 18:15N 34°27' E 137°13'2 8.6
2017-Dec-14 17:58N 34°26' E 137°16'610.4
2017-Dec-14 17:22N 34°23' E 137°22'14 5.8
2017-Dec-14 15:00N 34°19' E 137°38'0 0.2
2017-Dec-14 14:20N 34°19' E 137°38'0 0.6
2017-Dec-14 14:00N 34°19' E 137°39'1 1.1
2017-Dec-14 13:06N 34°19' E 137°40'0 1.8
2017-Dec-14 12:59N 34°19' E 137°40'  

Dump ship's entire track history